Time;durP1;ratioP1;P1;durP2;ratioP2;P2;SDS_P1;SDS_P2;PMS_P1;PMS_P2;Temp;Humidity;BMP_temperature;BMP_pressure;BME280_temperature;BME280_humidity;BME280_pressure;Samples;Min_cycle;Max_cycle;Signal;HPM_P1;HPM_P2
2021/03/20 00:01:02;;;;;;;;;;;;;;;-3.42;76.28;101838.20;1684412;84;20512;-78
2021/03/20 00:03:46;;;;;;;;;;;;;;;-3.41;76.30;101837.81;1693452;84;20663;-78
2021/03/20 00:06:34;;;;;;;;;;;;;;;-3.44;76.35;101826.25;1693313;84;20289;-78
2021/03/20 00:09:22;;;;;;;;;;;;;;;-3.42;76.35;101831.89;1690584;83;20316;-78
2021/03/20 00:12:07;;;;;;;;;;;;;;;-3.44;76.25;101832.19;1651470;86;20306;-78
2021/03/20 00:14:52;;;;;;;;;;;;;;;-3.45;76.30;101831.70;1665292;86;20306;-78
2021/03/20 00:17:36;;;;;;;;;;;;;;;-3.46;76.35;101839.20;1688587;84;20649;-78
2021/03/20 00:20:24;;;;;;;;;;;;;;;-3.47;76.33;101836.19;1709737;83;20322;-78
2021/03/20 00:23:10;;;;;;;;;;;;;;;-3.46;76.37;101836.67;1709706;83;20701;-78
2021/03/20 00:25:54;;;;;;;;;;;;;;;-3.47;76.34;101837.45;1715988;83;20304;-78
2021/03/20 00:28:39;;;;;;;;;;;;;;;-3.49;76.30;101842.41;1694416;83;20309;-78
2021/03/20 00:31:23;;;;;;;;;;;;;;;-3.51;76.38;101840.19;1691663;83;20569;-77
2021/03/20 00:34:07;;;;;;;;;;;;;;;-3.53;76.38;101837.95;1691853;84;20500;-77
2021/03/20 00:36:52;;;;;;;;;;;;;;;-3.52;76.47;101842.23;1691780;84;20316;-77
2021/03/20 00:39:37;;;;;;;;;;;;;;;-3.52;76.44;101845.15;1693260;84;20229;-77
2021/03/20 00:42:21;;;;;;;;;;;;;;;-3.53;76.45;101842.14;1686903;83;20280;-78
2021/03/20 00:45:08;;;;;;;;;;;;;;;-3.53;76.51;101843.41;1665222;86;20436;-78
2021/03/20 00:47:54;;;;;;;;;;;;;;;-3.54;76.47;101847.58;1686145;83;20183;-78
2021/03/20 00:50:39;;;;;;;;;;;;;;;-3.57;76.52;101841.08;1714925;83;20280;-78
2021/03/20 00:53:24;;;;;;;;;;;;;;;-3.57;76.60;101841.47;1694924;83;20200;-78
2021/03/20 00:56:09;;;;;;;;;;;;;;;-3.56;76.51;101844.09;1702721;83;20258;-78
2021/03/20 00:58:53;;;;;;;;;;;;;;;-3.61;76.49;101845.47;1713580;83;20475;-78
2021/03/20 01:01:37;;;;;;;;;;;;;;;-3.63;76.43;101838.18;1702675;83;20311;-78
2021/03/20 01:04:22;;;;;;;;;;;;;;;-3.67;76.44;101836.28;1722184;83;20298;-78
2021/03/20 01:07:07;;;;;;;;;;;;;;;-3.68;76.49;101837.06;1664488;84;20304;-78
2021/03/20 01:09:52;;;;;;;;;;;;;;;-3.69;76.54;101836.58;1691692;83;20257;-78
2021/03/20 01:12:36;;;;;;;;;;;;;;;-3.68;76.60;101830.35;1671026;83;20296;-78
2021/03/20 01:15:21;;;;;;;;;;;;;;;-3.70;76.48;101833.17;1695838;83;20289;-78
2021/03/20 01:18:05;;;;;;;;;;;;;;;-3.70;76.75;101829.38;1646126;83;20287;-78
2021/03/20 01:20:50;;;;;;;;;;;;;;;-3.67;76.70;101828.31;1690747;83;20281;-78
2021/03/20 01:23:35;;;;;;;;;;;;;;;-3.68;76.67;101835.80;1678619;83;20282;-77
2021/03/20 01:26:20;;;;;;;;;;;;;;;-3.67;76.66;101842.59;1682546;83;20557;-78
2021/03/20 01:29:04;;;;;;;;;;;;;;;-3.68;76.73;101834.53;1685663;83;20298;-78
2021/03/20 01:31:51;;;;;;;;;;;;;;;-3.70;76.64;101838.62;1718083;83;21192;-78
2021/03/20 01:34:36;;;;;;;;;;;;;;;-3.70;76.80;101841.15;1660020;84;20302;-78
2021/03/20 01:37:20;;;;;;;;;;;;;;;-3.68;76.93;101840.45;1670019;84;20293;-78
2021/03/20 01:40:07;;;;;;;;;;;;;;;-3.68;76.81;101839.20;1695397;83;20241;-78
2021/03/20 01:42:51;;;;;;;;;;;;;;;-3.71;76.79;101836.48;1689849;83;20316;-78
2021/03/20 01:45:37;;;;;;;;;;;;;;;-3.71;76.94;101838.14;1693449;84;21214;-78
2021/03/20 01:48:25;;;;;;;;;;;;;;;-3.74;76.91;101835.42;1692411;83;20209;-78
2021/03/20 01:51:11;;;;;;;;;;;;;;;-3.74;76.94;101834.16;1687677;83;20292;-78
2021/03/20 01:53:57;;;;;;;;;;;;;;;-3.73;77.07;101833.37;1669182;83;20585;-78
2021/03/20 01:56:43;;;;;;;;;;;;;;;-3.77;76.79;101838.63;1689470;83;20229;-78
2021/03/20 01:59:27;;;;;;;;;;;;;;;-3.80;77.04;101838.84;1693400;84;20309;-78
2021/03/20 02:02:12;;;;;;;;;;;;;;;-3.79;76.93;101836.80;1701570;83;20229;-78
2021/03/20 02:04:57;;;;;;;;;;;;;;;-3.81;77.00;101839.22;1691479;83;20329;-78
2021/03/20 02:07:41;;;;;;;;;;;;;;;-3.81;77.08;101840.88;1692433;83;20317;-78
2021/03/20 02:10:29;;;;;;;;;;;;;;;-3.82;77.12;101836.61;1693195;84;20301;-78
2021/03/20 02:13:26;;;;;;;;;;;;;;;-3.83;77.13;101837.00;1682806;83;20355;-77
2021/03/20 02:16:13;;;;;;;;;;;;;;;-3.85;77.07;101833.89;1692583;84;20336;-78
2021/03/20 02:19:19;;;;;;;;;;;;;;;-3.87;77.14;101841.38;1685723;83;20284;-78
2021/03/20 02:22:07;;;;;;;;;;;;;;;-3.90;77.12;101836.13;1672123;84;20299;-77
2021/03/20 02:25:11;;;;;;;;;;;;;;;-3.93;77.08;101837.20;1665481;83;104950;-78
2021/03/20 02:28:29;;;;;;;;;;;;;;;-3.94;77.14;101845.95;1692093;84;21063;-78
2021/03/20 02:31:30;;;;;;;;;;;;;;;-4.00;77.06;101834.69;1691843;83;20309;-78
2021/03/20 02:34:30;;;;;;;;;;;;;;;-4.01;77.17;101834.59;1645783;84;20307;-79
2021/03/20 02:37:27;;;;;;;;;;;;;;;-4.08;76.91;101835.86;1701528;83;20375;-78
2021/03/20 02:40:25;;;;;;;;;;;;;;;-4.10;77.11;101835.28;1664813;86;20616;-78
2021/03/20 02:43:16;;;;;;;;;;;;;;;-4.15;76.98;101826.55;1677047;83;21227;-78
2021/03/20 02:46:35;;;;;;;;;;;;;;;-4.19;77.16;101834.35;1689675;83;20187;-78
2021/03/20 02:49:42;;;;;;;;;;;;;;;-4.23;76.92;101829.02;1715009;83;20875;-78
2021/03/20 02:52:48;;;;;;;;;;;;;;;-4.25;77.07;101839.02;1693673;83;20266;-78
2021/03/20 02:55:39;;;;;;;;;;;;;;;-4.30;77.01;101842.03;1714854;83;20312;-78
2021/03/20 02:58:30;;;;;;;;;;;;;;;-4.31;77.09;101842.41;1712022;83;20512;-78
2021/03/20 03:01:17;;;;;;;;;;;;;;;-4.31;77.22;101844.94;1714504;83;20329;-78
2021/03/20 03:04:02;;;;;;;;;;;;;;;-4.30;77.30;101847.08;1693140;84;20565;-78
2021/03/20 03:07:13;;;;;;;;;;;;;;;-4.30;77.20;101841.64;1693427;84;20502;-78
2021/03/20 03:10:01;;;;;;;;;;;;;;;-4.32;77.25;101844.84;1703964;83;20300;-78
2021/03/20 03:12:55;;;;;;;;;;;;;;;-4.32;77.17;101848.23;1692038;84;20308;-78
2021/03/20 03:15:42;;;;;;;;;;;;;;;-4.37;77.18;101847.95;1683957;83;20327;-78
2021/03/20 03:18:32;;;;;;;;;;;;;;;-4.38;77.21;101850.37;1684711;84;20513;-78
2021/03/20 03:21:19;;;;;;;;;;;;;;;-4.40;77.31;101851.54;1651075;86;20555;-78
2021/03/20 03:24:04;;;;;;;;;;;;;;;-4.40;77.25;101854.45;1661181;86;20288;-78
2021/03/20 03:26:51;;;;;;;;;;;;;;;-4.44;77.05;101857.17;1659074;84;20203;-78
2021/03/20 03:29:37;;;;;;;;;;;;;;;-4.48;77.21;101856.87;1673793;84;20228;-78
2021/03/20 03:32:40;;;;;;;;;;;;;;;-4.48;77.25;101860.66;1660630;86;20296;-77
2021/03/20 03:35:31;;;;;;;;;;;;;;;-4.46;77.51;101861.24;1665001;86;20603;-77
2021/03/20 03:38:22;;;;;;;;;;;;;;;-4.46;77.47;101862.51;1663067;84;20304;-77
2021/03/20 03:41:10;;;;;;;;;;;;;;;-4.46;77.36;101862.89;1683046;84;20305;-78
2021/03/20 03:43:55;;;;;;;;;;;;;;;-4.47;77.39;101864.55;1662535;84;20240;-78
2021/03/20 03:46:43;;;;;;;;;;;;;;;-4.50;77.32;101870.66;1663474;86;20308;-78
2021/03/20 03:49:28;;;;;;;;;;;;;;;-4.50;77.39;101874.83;1670998;85;20289;-78
2021/03/20 03:52:14;;;;;;;;;;;;;;;-4.53;77.35;101868.32;1646417;86;20626;-78
2021/03/20 03:54:58;;;;;;;;;;;;;;;-4.53;77.51;101872.98;1663085;84;20306;-78
2021/03/20 03:57:56;;;;;;;;;;;;;;;-4.52;77.33;101873.47;1663431;86;20288;-78
2021/03/20 04:00:49;;;;;;;;;;;;;;;-4.56;77.34;101873.17;1659341;84;20984;-77
2021/03/20 04:03:59;;;;;;;;;;;;;;;-4.54;77.47;101877.92;1655006;86;20327;-77
2021/03/20 04:06:57;;;;;;;;;;;;;;;-4.55;77.43;101877.05;1661916;86;20331;-77
2021/03/20 04:09:50;;;;;;;;;;;;;;;-4.58;77.36;101875.98;1661706;84;21428;-77
2021/03/20 04:13:00;;;;;;;;;;;;;;;-4.61;77.40;101874.52;1656893;86;20319;-77
2021/03/20 04:16:03;;;;;;;;;;;;;;;-4.70;77.25;101868.13;1662113;85;20308;-77
2021/03/20 04:19:06;;;;;;;;;;;;;;;-4.71;77.33;101871.81;1657330;85;20318;-77
2021/03/20 04:21:57;;;;;;;;;;;;;;;-4.73;77.37;101874.63;1660138;86;20625;-77
2021/03/20 04:24:50;;;;;;;;;;;;;;;-4.76;77.52;101874.03;1668274;85;20308;-77
2021/03/20 04:27:36;;;;;;;;;;;;;;;-4.74;77.61;101875.02;1659614;86;20295;-77
2021/03/20 04:30:23;;;;;;;;;;;;;;;-4.71;77.53;101878.13;1660485;86;20299;-77
2021/03/20 04:33:24;;;;;;;;;;;;;;;-4.72;77.70;101873.85;1662224;86;20256;-77
2021/03/20 04:36:15;;;;;;;;;;;;;;;-4.71;77.49;101874.34;1655068;86;20362;-77
2021/03/20 04:39:01;;;;;;;;;;;;;;;-4.75;77.63;101877.05;1661088;86;20555;-77
2021/03/20 04:41:46;;;;;;;;;;;;;;;-4.74;77.67;101883.84;1660908;83;20291;-76
2021/03/20 04:44:36;;;;;;;;;;;;;;;-4.76;77.65;101886.66;1690052;84;20304;-77
2021/03/20 04:47:24;;;;;;;;;;;;;;;-4.77;77.66;101889.08;1686644;83;20269;-77
2021/03/20 04:50:17;;;;;;;;;;;;;;;-4.78;77.71;101892.38;1702660;84;20283;-77
2021/03/20 04:53:01;;;;;;;;;;;;;;;-4.78;77.72;101891.11;1706569;84;20292;-77
2021/03/20 04:55:46;;;;;;;;;;;;;;;-4.78;77.75;101894.89;1698189;83;20358;-76
2021/03/20 04:58:49;;;;;;;;;;;;;;;-4.78;77.74;101891.11;1714494;83;20290;-77
2021/03/20 05:01:39;;;;;;;;;;;;;;;-4.78;77.73;101892.38;1678582;84;20336;-77
2021/03/20 05:04:30;;;;;;;;;;;;;;;-4.80;77.67;101894.79;1690302;83;20631;-77
2021/03/20 05:07:15;;;;;;;;;;;;;;;-4.82;77.74;101893.81;1682238;83;20627;-76
2021/03/20 05:10:01;;;;;;;;;;;;;;;-4.81;77.75;101898.48;1690491;84;20571;-76
2021/03/20 05:12:48;;;;;;;;;;;;;;;-4.82;77.82;101898.86;1690416;84;20534;-77
2021/03/20 05:15:34;;;;;;;;;;;;;;;-4.79;77.83;101901.97;1669508;84;20333;-77
2021/03/20 05:18:18;;;;;;;;;;;;;;;-4.81;77.62;101911.09;1689988;84;20305;-76
2021/03/20 05:21:03;;;;;;;;;;;;;;;-4.81;77.81;101916.13;1674154;83;20309;-76
2021/03/20 05:23:47;;;;;;;;;;;;;;;-4.79;77.85;101920.51;1689573;83;20484;-77
2021/03/20 05:26:33;;;;;;;;;;;;;;;-4.78;77.72;101920.12;1687340;85;20226;-76
2021/03/20 05:29:18;;;;;;;;;;;;;;;-4.79;77.70;101917.98;1678746;85;20408;-76
2021/03/20 05:32:04;;;;;;;;;;;;;;;-4.75;77.81;101920.33;1682558;83;20292;-76
2021/03/20 05:34:48;;;;;;;;;;;;;;;-4.73;77.87;101923.44;1680714;85;20632;-76
2021/03/20 05:37:37;;;;;;;;;;;;;;;-4.70;77.87;101922.77;1682956;83;20285;-77
2021/03/20 05:40:31;;;;;;;;;;;;;;;-4.56;78.18;101914.42;1684568;83;20314;-77
2021/03/20 05:43:48;;;;;;;;;;;;;;;-4.32;78.33;101921.84;1687497;83;20288;-77
2021/03/20 05:46:45;;;;;;;;;;;;;;;-4.09;78.32;101920.38;1684537;83;20207;-76
2021/03/20 05:49:54;;;;;;;;;;;;;;;-3.85;78.34;101923.59;1690987;83;20317;-76
2021/03/20 05:52:49;;;;;;;;;;;;;;;-3.60;78.40;101925.57;1689051;83;20293;-76
2021/03/20 05:55:43;;;;;;;;;;;;;;;-3.37;78.37;101913.95;1687957;83;20296;-76
2021/03/20 05:58:34;;;;;;;;;;;;;;;-3.17;78.24;101906.70;1689883;83;20296;-77
2021/03/20 06:01:50;;;;;;;;;;;;;;;-2.99;78.25;101900.17;1632995;86;21145;-76
2021/03/20 06:04:46;;;;;;;;;;;;;;;-2.84;78.01;101899.81;1636426;86;20324;-76
2021/03/20 06:07:42;;;;;;;;;;;;;;;-2.63;78.12;101892.59;1632957;86;20281;-76
2021/03/20 06:10:40;;;;;;;;;;;;;;;-2.28;78.45;101894.96;1548207;90;20621;-77
2021/03/20 06:13:53;;;;;;;;;;;;;;;-1.75;78.69;101892.43;1615504;87;20329;-78
2021/03/20 06:16:47;;;;;;;;;;;;;;;-1.12;78.56;101895.73;1603163;87;20312;-77
2021/03/20 06:19:38;;;;;;;;;;;;;;;-0.51;78.37;101892.41;1615431;87;21290;-78
2021/03/20 06:22:32;;;;;;;;;;;;;;;0.09;78.37;101898.67;1622684;87;20677;-77
2021/03/20 06:25:54;;;;;;;;;;;;;;;0.61;77.96;101896.42;1563286;90;20333;-74
2021/03/20 06:28:59;;;;;;;;;;;;;;;1.03;77.54;101892.75;1572041;90;20352;-74
2021/03/20 06:31:59;;;;;;;;;;;;;;;1.41;77.48;101894.75;1517827;93;20337;-74
2021/03/20 06:35:02;;;;;;;;;;;;;;;1.76;77.74;101894.89;1514176;93;20324;-74
2021/03/20 06:37:56;;;;;;;;;;;;;;;2.06;77.28;101894.84;1514051;93;20395;-74
2021/03/20 06:40:56;;;;;;;;;;;;;;;2.21;77.24;101889.42;1535426;91;653941;-74
2021/03/20 06:43:44;;;;;;;;;;;;;;;2.22;76.71;101886.06;1552502;90;20360;-74
2021/03/20 06:46:32;;;;;;;;;;;;;;;2.19;76.29;101895.75;1539459;91;20724;-77
2021/03/20 06:49:29;;;;;;;;;;;;;;;2.10;76.67;101886.45;1567820;90;21278;-77
2021/03/20 06:52:19;;;;;;;;;;;;;;;2.19;76.65;101897.42;1563706;90;20643;-77
2021/03/20 06:55:07;;;;;;;;;;;;;;;2.10;76.07;101903.45;1580121;90;20756;-75
2021/03/20 06:57:52;;;;;;;;;;;;;;;1.58;75.65;101901.39;1557710;90;20325;-75
2021/03/20 07:00:37;;;;;;;;;;;;;;;1.46;76.85;101903.05;1579636;90;20615;-74
2021/03/20 07:03:48;;;;;;;;;;;;;;;1.71;77.14;101901.48;1634428;86;20322;-75
2021/03/20 07:06:56;;;;;;;;;;;;;;;1.93;77.14;101900.27;1672641;84;20317;-75
2021/03/20 07:10:27;;;;;;;;;;;;;;;2.28;77.42;101904.16;1662814;84;20236;-74
2021/03/20 07:13:21;;;;;;;;;;;;;;;2.54;76.81;101903.88;1660189;84;20306;-74
2021/03/20 07:16:09;;;;;;;;;;;;;;;2.53;76.42;101903.41;1663108;84;20272;-74
2021/03/20 07:19:12;;;;;;;;;;;;;;;2.36;76.20;101904.05;1664265;84;20292;-74
2021/03/20 07:22:00;;;;;;;;;;;;;;;2.23;76.14;101906.53;1664204;84;20498;-74
2021/03/20 07:24:45;;;;;;;;;;;;;;;2.43;76.74;101914.09;1667314;84;20273;-75
2021/03/20 07:27:34;;;;;;;;;;;;;;;2.42;76.25;101909.80;1655672;84;20291;-74
2021/03/20 07:30:34;;;;;;;;;;;;;;;2.50;76.49;101917.34;1650997;84;694997;-74
2021/03/20 07:33:31;;;;;;;;;;;;;;;2.64;76.50;101918.69;1664083;84;20276;-74
2021/03/20 07:36:37;;;;;;;;;;;;;;;2.68;76.02;101928.20;1658504;84;20371;-74
2021/03/20 07:39:26;;;;;;;;;;;;;;;2.46;75.56;101930.80;1660997;84;20347;-74
2021/03/20 07:42:32;;;;;;;;;;;;;;;2.29;75.60;101923.77;1651198;84;20295;-74
2021/03/20 07:45:23;;;;;;;;;;;;;;;2.18;75.55;101927.58;1667282;84;20305;-74
2021/03/20 07:48:25;;;;;;;;;;;;;;;2.13;75.87;101928.67;1659763;84;20327;-75
2021/03/20 07:51:16;;;;;;;;;;;;;;;2.35;76.32;101925.69;1659438;84;20315;-75
2021/03/20 07:54:01;;;;;;;;;;;;;;;2.70;76.31;101933.37;1656153;84;141488;-74
2021/03/20 07:56:45;;;;;;;;;;;;;;;2.83;76.02;101933.01;1659547;84;20291;-74
2021/03/20 07:59:30;;;;;;;;;;;;;;;2.77;75.46;101927.67;1657318;84;20309;-75
2021/03/20 08:02:33;;;;;;;;;;;;;;;2.87;75.77;101922.95;1636492;84;20602;-74
2021/03/20 08:05:26;;;;;;;;;;;;;;;2.78;75.44;101928.14;1660342;84;20315;-73
2021/03/20 08:08:26;;;;;;;;;;;;;;;2.76;75.72;101931.05;1660207;84;20279;-74
2021/03/20 08:11:27;;;;;;;;;;;;;;;2.71;75.49;101933.42;1671183;84;20306;-75
2021/03/20 08:14:15;;;;;;;;;;;;;;;2.42;75.10;101933.63;1662732;84;20283;-74
2021/03/20 08:17:00;;;;;;;;;;;;;;;2.23;75.10;101935.88;1653632;84;20291;-74
2021/03/20 08:19:45;;;;;;;;;;;;;;;2.13;75.34;101935.05;1663815;84;20213;-75
2021/03/20 08:22:39;;;;;;;;;;;;;;;2.22;75.55;101937.09;1651934;84;20232;-74
2021/03/20 08:25:39;;;;;;;;;;;;;;;2.23;75.44;101938.84;1660373;84;20575;-74
2021/03/20 08:28:48;;;;;;;;;;;;;;;2.24;75.10;101940.17;1635504;84;20295;-74
2021/03/20 08:31:45;;;;;;;;;;;;;;;2.06;74.80;101943.71;1657880;84;20307;-74
2021/03/20 08:34:49;;;;;;;;;;;;;;;1.93;75.03;101939.39;1631603;85;20297;-75
2021/03/20 08:38:02;;;;;;;;;;;;;;;2.00;75.26;101944.34;1664516;84;20203;-74
2021/03/20 08:40:59;;;;;;;;;;;;;;;2.07;75.23;101942.50;1669451;84;20328;-75
2021/03/20 08:43:53;;;;;;;;;;;;;;;2.16;75.17;101952.16;1665917;84;20345;-74
2021/03/20 08:46:46;;;;;;;;;;;;;;;2.32;75.08;101949.00;1667622;84;20303;-74
2021/03/20 08:49:54;;;;;;;;;;;;;;;2.45;74.79;101954.58;1669277;84;20294;-74
2021/03/20 08:52:59;;;;;;;;;;;;;;;2.69;75.00;101954.61;1671853;84;20323;-74
2021/03/20 08:55:56;;;;;;;;;;;;;;;2.61;74.28;101961.58;1638555;85;20290;-74
2021/03/20 08:59:02;;;;;;;;;;;;;;;2.44;74.10;101960.50;1662803;84;20291;-74
2021/03/20 09:01:54;;;;;;;;;;;;;;;2.18;74.30;101964.17;1674591;84;20290;-75
2021/03/20 09:04:39;;;;;;;;;;;;;;;2.10;74.75;101959.17;1666945;84;20247;-75
2021/03/20 09:07:44;;;;;;;;;;;;;;;1.91;74.50;101967.80;1669659;84;20187;-74
2021/03/20 09:10:37;;;;;;;;;;;;;;;1.90;74.79;101966.05;1669873;84;20298;-74
2021/03/20 09:13:34;;;;;;;;;;;;;;;1.95;74.67;101964.55;1655683;84;20294;-74
2021/03/20 09:16:41;;;;;;;;;;;;;;;1.96;74.61;101965.02;1669247;84;20270;-74
2021/03/20 09:19:29;;;;;;;;;;;;;;;1.91;74.43;101966.52;1705188;82;20282;-74
2021/03/20 09:22:16;;;;;;;;;;;;;;;1.89;74.40;101971.09;1696994;83;20214;-74
2021/03/20 09:25:06;;;;;;;;;;;;;;;1.76;74.09;101962.47;1700241;83;20165;-74
2021/03/20 09:28:27;;;;;;;;;;;;;;;1.63;74.08;101967.45;1696405;82;20198;-74
2021/03/20 09:31:32;;;;;;;;;;;;;;;1.61;74.24;101966.52;1697500;83;20276;-74
2021/03/20 09:34:35;;;;;;;;;;;;;;;1.70;74.33;101965.63;1580647;89;20334;-74
2021/03/20 09:37:23;;;;;;;;;;;;;;;1.76;73.82;101963.34;1579404;89;20342;-75
2021/03/20 09:40:11;;;;;;;;;;;;;;;1.69;73.72;101968.12;1593311;89;20334;-74
2021/03/20 09:42:56;;;;;;;;;;;;;;;1.55;73.55;101971.39;1574630;89;20353;-74
2021/03/20 09:45:41;;;;;;;;;;;;;;;1.40;73.59;101973.28;1560343;90;20331;-74
2021/03/20 09:48:45;;;;;;;;;;;;;;;1.41;73.85;101963.56;1585347;89;20356;-74
2021/03/20 09:51:54;;;;;;;;;;;;;;;1.43;73.54;101967.92;1556581;90;20323;-74
2021/03/20 09:54:41;;;;;;;;;;;;;;;1.46;73.90;101962.95;1576710;89;20321;-74
2021/03/20 09:57:30;;;;;;;;;;;;;;;1.63;74.20;101957.26;1580102;89;20321;-74
2021/03/20 10:00:14;;;;;;;;;;;;;;;1.83;74.17;101961.50;1591572;89;20315;-74
2021/03/20 10:02:59;;;;;;;;;;;;;;;1.99;73.97;101952.39;1566667;89;20329;-74
2021/03/20 10:05:46;;;;;;;;;;;;;;;2.08;73.64;101948.03;1670800;83;20671;-74
2021/03/20 10:08:34;;;;;;;;;;;;;;;2.17;73.51;101951.36;1690044;82;20317;-74
2021/03/20 10:11:34;;;;;;;;;;;;;;;2.22;73.58;101953.28;1698436;83;20298;-74
2021/03/20 10:14:28;;;;;;;;;;;;;;;2.23;73.53;101945.22;1701566;82;20341;-74
2021/03/20 10:17:22;;;;;;;;;;;;;;;2.36;73.66;101941.47;1683849;83;20311;-75
2021/03/20 10:20:18;;;;;;;;;;;;;;;2.41;73.40;101938.27;1674837;84;20497;-74
2021/03/20 10:23:21;;;;;;;;;;;;;;;2.49;73.22;101938.16;1677134;84;20265;-75
2021/03/20 10:26:25;;;;;;;;;;;;;;;2.40;72.96;101940.36;1676473;84;20292;-74
2021/03/20 10:29:22;;;;;;;;;;;;;;;2.34;72.74;101933.75;1687085;83;20308;-74
2021/03/20 10:32:22;;;;;;;;;;;;;;;2.23;72.78;101930.78;1681048;84;20291;-74
2021/03/20 10:35:09;;;;;;;;;;;;;;;2.16;72.56;101924.97;1676412;84;20497;-74
2021/03/20 10:37:54;;;;;;;;;;;;;;;2.10;72.81;101920.90;1666415;84;20262;-74
2021/03/20 10:40:38;;;;;;;;;;;;;;;2.16;72.82;101916.45;1677390;84;20534;-74
2021/03/20 10:43:22;;;;;;;;;;;;;;;2.19;72.81;101915.28;1681194;84;20261;-74
2021/03/20 10:46:07;;;;;;;;;;;;;;;2.23;72.49;101909.09;1669848;84;20467;-74
2021/03/20 10:48:54;;;;;;;;;;;;;;;2.21;72.74;101907.28;1676924;84;20747;-74
2021/03/20 10:51:40;;;;;;;;;;;;;;;2.28;72.52;101910.54;1667036;84;20493;-74
2021/03/20 10:54:41;;;;;;;;;;;;;;;2.37;72.78;101908.34;1690261;84;20296;-75
2021/03/20 10:57:29;;;;;;;;;;;;;;;2.49;72.77;101903.70;1671407;84;20273;-75
2021/03/20 11:00:32;;;;;;;;;;;;;;;2.52;72.79;101907.64;1682680;84;20288;-75
2021/03/20 11:03:20;;;;;;;;;;;;;;;2.60;72.60;101908.77;1678426;84;20554;-75
2021/03/20 11:06:12;;;;;;;;;;;;;;;2.74;72.45;101908.41;1687580;84;20313;-74
2021/03/20 11:09:21;;;;;;;;;;;;;;;2.66;71.87;101908.99;1671895;84;20313;-74
2021/03/20 11:12:09;;;;;;;;;;;;;;;2.48;71.66;101906.20;1651339;84;20297;-74
2021/03/20 11:14:59;;;;;;;;;;;;;;;2.41;72.02;101905.50;1682068;84;20169;-74
2021/03/20 11:17:43;;;;;;;;;;;;;;;2.45;72.15;101899.70;1688813;83;20284;-75
2021/03/20 11:20:34;;;;;;;;;;;;;;;2.50;72.23;101898.19;1706324;83;20256;-74
2021/03/20 11:23:33;;;;;;;;;;;;;;;2.60;72.14;101896.00;1692196;83;20308;-74
2021/03/20 11:26:31;;;;;;;;;;;;;;;2.69;72.22;101890.77;1701611;82;20325;-75
2021/03/20 11:29:21;;;;;;;;;;;;;;;2.80;72.14;101891.63;1696729;83;20396;-75
2021/03/20 11:32:25;;;;;;;;;;;;;;;2.90;71.98;101890.27;1693914;83;20316;-75
2021/03/20 11:35:22;;;;;;;;;;;;;;;2.93;71.75;101887.41;1695353;83;20308;-75
2021/03/20 11:38:10;;;;;;;;;;;;;;;2.89;71.64;101880.87;1701236;83;20321;-73
2021/03/20 11:41:04;;;;;;;;;;;;;;;2.98;71.95;101872.25;1692996;83;20331;-74
2021/03/20 11:43:58;;;;;;;;;;;;;;;3.10;71.90;101874.36;1690246;83;20318;-74
2021/03/20 11:46:55;;;;;;;;;;;;;;;3.00;71.29;101865.51;1686690;83;20427;-77
2021/03/20 11:49:46;;;;;;;;;;;;;;;2.99;71.56;101874.86;1689258;83;20150;-74
2021/03/20 11:52:37;;;;;;;;;;;;;;;3.01;71.58;101866.38;1703922;83;20614;-75
2021/03/20 11:55:28;;;;;;;;;;;;;;;3.12;71.71;101862.51;1696085;83;21076;-74
2021/03/20 11:58:28;;;;;;;;;;;;;;;3.23;71.65;101863.71;1696327;83;20317;-75
2021/03/20 12:01:32;;;;;;;;;;;;;;;3.25;71.32;101852.72;1686560;83;20308;-75
2021/03/20 12:04:25;;;;;;;;;;;;;;;3.27;71.30;101850.22;1694825;83;20341;-74
2021/03/20 12:07:23;;;;;;;;;;;;;;;3.30;71.01;101847.77;1688744;83;20325;-74
2021/03/20 12:10:19;;;;;;;;;;;;;;;3.26;71.09;101842.09;1699708;83;20476;-74
2021/03/20 12:13:04;;;;;;;;;;;;;;;3.30;71.26;101841.38;1695426;83;20298;-74
2021/03/20 12:15:53;;;;;;;;;;;;;;;3.24;70.75;101838.20;1694493;83;20398;-74
2021/03/20 12:18:37;;;;;;;;;;;;;;;3.23;71.13;101836.87;1683758;81;20317;-75
2021/03/20 12:21:22;;;;;;;;;;;;;;;3.24;70.96;101833.09;1691700;83;20304;-75
2021/03/20 12:24:08;;;;;;;;;;;;;;;3.17;70.77;101834.98;1688053;83;20305;-74
2021/03/20 12:26:54;;;;;;;;;;;;;;;3.14;70.17;101833.59;1676565;83;20199;-74
2021/03/20 12:29:40;;;;;;;;;;;;;;;2.95;70.69;101826.16;1704839;83;20321;-74
2021/03/20 12:32:40;;;;;;;;;;;;;;;2.93;70.82;101819.72;1698754;84;20321;-74
2021/03/20 12:35:31;;;;;;;;;;;;;;;2.96;70.88;101822.78;1682027;83;20754;-75
2021/03/20 12:38:24;;;;;;;;;;;;;;;2.85;70.73;101813.47;1693212;83;20373;-74
2021/03/20 12:41:12;;;;;;;;;;;;;;;2.84;70.78;101817.25;1696596;83;20190;-74
2021/03/20 12:44:15;;;;;;;;;;;;;;;2.79;70.50;101806.87;1689007;83;20201;-74
2021/03/20 12:47:02;;;;;;;;;;;;;;;2.67;70.27;101805.17;1693152;84;20310;-74
2021/03/20 12:49:46;;;;;;;;;;;;;;;2.61;70.47;101804.55;1694861;83;20450;-74
2021/03/20 12:52:32;;;;;;;;;;;;;;;2.65;70.41;101798.73;1680632;84;20292;-75
2021/03/20 12:55:16;;;;;;;;;;;;;;;2.66;70.56;101797.91;1688854;83;20278;-74
2021/03/20 12:58:02;;;;;;;;;;;;;;;2.68;70.58;101787.75;1688372;83;20203;-74
2021/03/20 13:00:47;;;;;;;;;;;;;;;2.73;70.71;101793.89;1691288;83;20528;-74
2021/03/20 13:03:32;;;;;;;;;;;;;;;2.76;70.61;101788.89;1696793;83;20345;-74
2021/03/20 13:06:16;;;;;;;;;;;;;;;2.71;70.47;101790.41;1690168;83;20369;-74
2021/03/20 13:09:01;;;;;;;;;;;;;;;2.68;70.46;101780.09;1688836;83;20316;-74
2021/03/20 13:11:46;;;;;;;;;;;;;;;2.66;70.45;101776.20;1694831;83;20303;-74
2021/03/20 13:14:30;;;;;;;;;;;;;;;2.63;70.39;101776.10;1688316;83;20214;-74
2021/03/20 13:17:15;;;;;;;;;;;;;;;2.58;70.50;101770.00;1671811;83;20295;-74
2021/03/20 13:20:00;;;;;;;;;;;;;;;2.59;70.47;101777.25;1705317;83;20614;-75
2021/03/20 13:22:45;;;;;;;;;;;;;;;2.56;70.47;101766.94;1675363;83;20303;-75
2021/03/20 13:25:33;;;;;;;;;;;;;;;2.56;70.46;101768.20;1689116;83;20301;-74
2021/03/20 13:28:18;;;;;;;;;;;;;;;2.56;70.42;101763.97;1691261;83;20348;-74
2021/03/20 13:31:02;;;;;;;;;;;;;;;2.60;70.33;101764.95;1681540;83;20292;-74
2021/03/20 13:33:47;;;;;;;;;;;;;;;2.62;70.33;101760.73;1700518;83;20288;-74
2021/03/20 13:36:32;;;;;;;;;;;;;;;2.68;70.24;101762.63;1695122;83;20318;-74
2021/03/20 13:39:17;;;;;;;;;;;;;;;2.72;70.42;101752.98;1693980;82;20433;-74
2021/03/20 13:42:02;;;;;;;;;;;;;;;2.84;70.47;101757.22;1691814;83;20305;-74
2021/03/20 13:44:47;;;;;;;;;;;;;;;2.93;70.37;101746.04;1694147;83;20305;-75
2021/03/20 13:47:31;;;;;;;;;;;;;;;3.03;70.44;101754.88;1697972;83;20285;-75
2021/03/20 13:50:17;;;;;;;;;;;;;;;3.11;70.41;101740.67;1687419;83;20301;-74
2021/03/20 13:53:05;;;;;;;;;;;;;;;3.11;70.16;101746.64;1697147;83;20218;-74
2021/03/20 13:55:53;;;;;;;;;;;;;;;3.06;70.08;101743.07;1699816;83;20257;-74
2021/03/20 13:58:38;;;;;;;;;;;;;;;3.05;70.31;101737.50;1695793;83;20524;-74
2021/03/20 14:01:22;;;;;;;;;;;;;;;2.99;70.00;101729.23;1690905;83;20589;-74
2021/03/20 14:04:06;;;;;;;;;;;;;;;2.96;70.05;101733.37;1695727;83;20559;-74
2021/03/20 14:06:51;;;;;;;;;;;;;;;2.97;70.07;101731.27;1694995;83;20308;-74
2021/03/20 14:09:36;;;;;;;;;;;;;;;2.97;70.08;101734.70;1695848;83;20218;-74
2021/03/20 14:12:21;;;;;;;;;;;;;;;3.00;70.01;101733.93;1692036;83;20322;-74
2021/03/20 14:15:07;;;;;;;;;;;;;;;3.04;70.03;101734.48;1719210;81;20348;-74
2021/03/20 14:17:52;;;;;;;;;;;;;;;3.03;70.09;101719.11;1695768;82;20329;-74
2021/03/20 14:20:42;;;;;;;;;;;;;;;3.07;70.09;101713.28;1699427;83;21164;-75
2021/03/20 14:23:27;;;;;;;;;;;;;;;3.10;70.04;101706.98;1692756;83;20408;-75
2021/03/20 14:26:12;;;;;;;;;;;;;;;3.10;69.88;101706.58;1692014;83;20301;-75
2021/03/20 14:28:56;;;;;;;;;;;;;;;2.99;69.70;101707.52;1704617;82;20309;-74
2021/03/20 14:31:42;;;;;;;;;;;;;;;2.88;69.64;101707.98;1693888;82;37520;-75
2021/03/20 14:34:27;;;;;;;;;;;;;;;2.81;69.81;101704.36;1699040;83;20305;-75
2021/03/20 14:37:11;;;;;;;;;;;;;;;2.73;69.75;101698.53;1697084;83;20420;-75
2021/03/20 14:40:00;;;;;;;;;;;;;;;2.63;69.71;101694.80;1697475;83;20317;-74
2021/03/20 14:42:42;;;;;;;;;;;;;;;2.54;69.73;101694.53;1692223;82;21417;-74
2021/03/20 14:45:27;;;;;;;;;;;;;;;2.48;69.82;101687.52;1697512;83;20405;-75
2021/03/20 14:48:15;;;;;;;;;;;;;;;2.44;69.85;101687.37;1698604;82;20297;-74